Lithopolis, Ohio
Current Conditions -  °F | °C
As of 1:15 AM on Thursday 23 Oct 2014 (Local Time) from KLCK Reporting Station
Overcast Overcast  
Wind Chill: 44°   Ceiling: 3500
Heat Index: 48°   Visibility: 10mi
Dew Point: 42°   Wind: 7mph
Humidity: 81%   Direction: 330°NNW
Pressure: 30.23"   Gusts: NA
Location:  39.8°N, 82.81°W
Report Text: KLCK 230515Z AUTO 33006KT 10SM OVC035 09/06 A3023 RMK AO2 T00870056
Loading
Personal Weather Stations






























Interactive Weather Map
Tropical Storm Tracking
New forecast layout! Learn more

10-Day Weather Forecast

Advertisements
Track Severe Weather on mobile